Time;durP1;ratioP1;P1;durP2;ratioP2;P2;SDS_P1;SDS_P2;PMS_P1;PMS_P2;Temp;Humidity;BMP_temperature;BMP_pressure;BME280_temperature;BME280_humidity;BME280_pressure;Samples;Min_cycle;Max_cycle;Signal;HPM_P1;HPM_P2
2024/02/06 00:00:17;;;;;;;9.53;4.43;;;6.60;99.90;;;;;;5054591;28;20088;-79
2024/02/06 00:02:42;;;;;;;12.40;4.07;;;6.60;99.90;;;;;;5054970;28;20119;-79
2024/02/06 00:05:08;;;;;;;13.70;4.80;;;6.60;99.90;;;;;;5054476;28;20029;-79
2024/02/06 00:07:34;;;;;;;15.27;4.40;;;6.60;99.90;;;;;;5054885;28;20393;-79
2024/02/06 00:09:59;;;;;;;10.53;4.00;;;6.60;99.90;;;;;;5054431;28;20055;-79
2024/02/06 00:12:25;;;;;;;11.47;3.90;;;6.60;99.90;;;;;;5054902;28;20145;-79
2024/02/06 00:14:53;;;;;;;16.33;5.10;;;6.60;99.90;;;;;;5054959;28;20025;-79
2024/02/06 00:17:19;;;;;;;14.33;4.67;;;6.60;99.90;;;;;;5055500;28;20112;-79
2024/02/06 00:19:44;;;;;;;12.80;4.77;;;6.70;99.90;;;;;;5054715;28;20061;-79
2024/02/06 00:22:10;;;;;;;11.90;4.40;;;6.70;99.90;;;;;;5053912;28;20040;-79
2024/02/06 00:24:35;;;;;;;11.23;4.27;;;6.70;99.90;;;;;;5054828;28;20049;-79
2024/02/06 00:27:01;;;;;;;14.33;4.77;;;6.70;99.90;;;;;;5055250;28;20028;-79
2024/02/06 00:29:28;;;;;;;9.27;4.07;;;6.70;99.90;;;;;;5055687;28;20458;-79
2024/02/06 00:31:54;;;;;;;14.80;4.60;;;6.80;99.90;;;;;;5054489;28;20116;-79
2024/02/06 00:34:19;;;;;;;12.10;3.57;;;6.80;99.90;;;;;;5053933;28;20079;-79
2024/02/06 00:36:45;;;;;;;12.23;3.83;;;6.80;99.90;;;;;;5054502;28;20020;-79
2024/02/06 00:39:11;;;;;;;13.90;4.03;;;6.80;99.90;;;;;;5053707;28;20032;-79
2024/02/06 00:41:37;;;;;;;10.48;4.07;;;6.80;99.90;;;;;;5054979;28;20079;-79
2024/02/06 00:44:03;;;;;;;10.32;4.10;;;6.80;99.90;;;;;;5054546;28;20488;-79
2024/02/06 00:46:28;;;;;;;14.65;4.25;;;6.80;99.90;;;;;;5055488;28;20103;-79
2024/02/06 00:48:54;;;;;;;11.48;4.00;;;6.80;99.90;;;;;;5054522;28;20417;-79
2024/02/06 00:51:20;;;;;;;8.45;3.78;;;6.90;99.90;;;;;;5054695;28;20025;-79
2024/02/06 00:53:45;;;;;;;12.50;4.20;;;6.90;99.90;;;;;;5054584;28;20535;-79
2024/02/06 00:56:11;;;;;;;10.60;4.00;;;6.90;99.90;;;;;;5054745;28;20028;-79
2024/02/06 00:58:37;;;;;;;7.47;4.57;;;6.90;99.90;;;;;;5054424;28;20044;-79
2024/02/06 01:01:03;;;;;;;9.80;4.60;;;6.90;99.90;;;;;;5054708;28;20155;-79
2024/02/06 01:03:28;;;;;;;10.65;4.00;;;6.90;99.90;;;;;;5053825;28;20482;-78
2024/02/06 01:05:54;;;;;;;6.60;3.75;;;6.90;99.90;;;;;;5054217;28;20025;-78
2024/02/06 01:08:20;;;;;;;12.60;3.60;;;6.90;99.90;;;;;;5053458;28;20024;-78
2024/02/06 01:10:46;;;;;;;12.50;5.27;;;6.90;99.90;;;;;;5053876;28;20094;-78
2024/02/06 01:13:11;;;;;;;9.57;4.63;;;6.90;99.90;;;;;;5053385;28;20037;-78
2024/02/06 01:15:37;;;;;;;10.52;4.30;;;6.90;99.90;;;;;;5054751;28;20033;-78
2024/02/06 01:18:03;;;;;;;10.13;4.50;;;6.90;99.90;;;;;;5054464;28;20029;-79
2024/02/06 01:20:28;;;;;;;10.93;4.00;;;6.90;99.90;;;;;;5053310;28;20537;-78
2024/02/06 01:22:54;;;;;;;13.43;4.40;;;6.80;99.90;;;;;;5053563;28;20037;-78
2024/02/06 01:25:19;;;;;;;14.17;4.23;;;6.80;99.90;;;;;;5052978;28;20144;-78
2024/02/06 01:27:45;;;;;;;10.83;3.70;;;6.80;99.90;;;;;;5054672;28;20021;-79
2024/02/06 01:30:11;;;;;;;12.57;4.60;;;6.80;99.90;;;;;;5054091;28;20378;-79
2024/02/06 01:32:37;;;;;;;10.10;4.23;;;6.80;99.90;;;;;;5053708;28;20082;-78
2024/02/06 01:35:03;;;;;;;11.50;4.20;;;6.80;99.90;;;;;;5052932;28;20033;-79
2024/02/06 01:37:29;;;;;;;12.18;4.00;;;6.80;99.90;;;;;;5052938;28;20025;-78
2024/02/06 01:39:55;;;;;;;13.05;4.28;;;6.80;99.90;;;;;;5054211;28;20032;-79
2024/02/06 01:42:20;;;;;;;9.85;4.15;;;6.80;99.90;;;;;;5052393;28;20414;-78
2024/02/06 01:44:46;;;;;;;10.23;4.50;;;6.90;99.90;;;;;;5053247;28;20021;-78
2024/02/06 01:47:14;;;;;;;9.35;4.20;;;6.90;99.90;;;;;;5052981;28;20025;-78
2024/02/06 01:49:41;;;;;;;10.98;4.40;;;6.90;99.90;;;;;;5053166;28;20021;-78
2024/02/06 01:52:08;;;;;;;13.13;4.00;;;6.90;99.90;;;;;;5053237;28;20029;-79
2024/02/06 01:54:34;;;;;;;10.80;3.63;;;6.90;99.90;;;;;;5053101;28;20066;-79
2024/02/06 01:57:01;;;;;;;8.63;4.18;;;6.90;99.90;;;;;;5052921;28;20067;-79
2024/02/06 01:59:27;;;;;;;17.43;4.63;;;6.90;99.90;;;;;;5053011;28;20036;-79
2024/02/06 02:01:54;;;;;;;11.57;3.85;;;6.80;99.90;;;;;;5052791;28;20041;-79
2024/02/06 02:04:20;;;;;;;13.37;4.77;;;6.80;99.90;;;;;;5052677;28;20040;-79
2024/02/06 02:06:46;;;;;;;17.53;5.40;;;6.80;99.90;;;;;;5053342;28;20025;-79
2024/02/06 02:09:12;;;;;;;14.53;4.53;;;6.80;99.90;;;;;;5052368;28;20075;-79
2024/02/06 02:11:37;;;;;;;18.13;4.53;;;6.80;99.90;;;;;;5054074;28;20029;-79
2024/02/06 02:14:03;;;;;;;16.07;4.87;;;6.80;99.90;;;;;;5052077;28;20466;-81
2024/02/06 02:16:29;;;;;;;12.02;4.45;;;6.80;99.90;;;;;;5052747;28;20021;-79
2024/02/06 02:18:56;;;;;;;8.83;4.33;;;6.80;99.90;;;;;;5052914;28;20025;-79
2024/02/06 02:21:21;;;;;;;14.03;4.47;;;6.80;99.90;;;;;;5053362;28;20067;-79
2024/02/06 02:23:47;;;;;;;13.75;4.00;;;6.80;99.90;;;;;;5054174;28;20075;-79
2024/02/06 02:26:13;;;;;;;13.27;4.05;;;6.80;99.90;;;;;;5052223;28;20134;-79
2024/02/06 02:28:42;;;;;;;14.93;5.03;;;6.80;99.90;;;;;;5053412;28;20470;-78
2024/02/06 02:31:10;;;;;;;12.53;3.93;;;6.80;99.90;;;;;;5052244;28;20021;-79
2024/02/06 02:33:36;;;;;;;13.40;4.53;;;6.80;99.90;;;;;;5052505;28;20458;-79
2024/02/06 02:36:09;;;;;;;9.85;4.63;;;6.80;99.90;;;;;;5052597;28;20025;-79
2024/02/06 02:38:37;;;;;;;10.83;4.07;;;6.80;99.90;;;;;;5052408;28;20359;-79
2024/02/06 02:41:02;;;;;;;10.63;4.33;;;6.80;99.90;;;;;;5053479;28;20029;-79
2024/02/06 02:43:28;;;;;;;16.93;5.00;;;6.80;99.90;;;;;;5051735;28;20086;-79
2024/02/06 02:45:54;;;;;;;9.63;4.10;;;6.80;99.90;;;;;;5053359;28;20109;-79
2024/02/06 02:48:19;;;;;;;14.47;4.63;;;6.80;99.90;;;;;;5052738;28;20056;-80
2024/02/06 02:50:45;;;;;;;15.10;4.75;;;6.80;99.90;;;;;;5052415;28;20119;-79
2024/02/06 02:53:11;;;;;;;9.32;3.95;;;6.80;99.90;;;;;;5051845;28;20033;-79
2024/02/06 02:55:36;;;;;;;13.13;4.20;;;6.80;99.90;;;;;;5052560;28;20021;-79
2024/02/06 02:58:02;;;;;;;13.73;4.53;;;6.80;99.90;;;;;;5052449;28;20021;-78
2024/02/06 03:00:28;;;;;;;13.00;4.40;;;6.80;99.90;;;;;;5051837;28;20021;-79
2024/02/06 03:02:53;;;;;;;11.15;4.68;;;6.80;99.90;;;;;;5052260;28;20029;-79
2024/02/06 03:05:19;;;;;;;16.95;4.30;;;6.80;99.90;;;;;;5055821;28;20033;-79
2024/02/06 03:07:45;;;;;;;15.63;4.93;;;6.80;99.90;;;;;;5056108;28;20025;-79
2024/02/06 03:10:10;;;;;;;14.83;4.00;;;6.80;99.90;;;;;;5055843;28;20032;-79
2024/02/06 03:12:36;;;;;;;13.45;4.68;;;6.80;99.90;;;;;;5055693;28;20040;-79
2024/02/06 03:15:03;;;;;;;15.23;4.65;;;6.80;99.90;;;;;;5056021;28;20025;-79
2024/02/06 03:17:29;;;;;;;12.45;4.78;;;6.80;99.90;;;;;;5055561;28;20021;-79
2024/02/06 03:19:54;;;;;;;14.98;4.25;;;6.80;99.90;;;;;;5055950;28;20036;-79
2024/02/06 03:22:21;;;;;;;10.93;4.47;;;6.80;99.90;;;;;;5055556;28;20029;-79
2024/02/06 03:24:46;;;;;;;13.82;4.70;;;6.80;99.90;;;;;;5057038;28;20021;-80
2024/02/06 03:27:12;;;;;;;12.90;4.80;;;6.80;99.90;;;;;;5056660;28;20082;-79
2024/02/06 03:29:37;;;;;;;14.45;4.00;;;6.80;99.90;;;;;;5056007;28;20036;-80
2024/02/06 03:32:04;;;;;;;11.03;4.47;;;6.80;99.90;;;;;;5056250;28;20033;-80
2024/02/06 03:34:30;;;;;;;10.57;4.17;;;6.80;99.90;;;;;;5055782;28;20032;-80
2024/02/06 03:36:55;;;;;;;15.57;4.40;;;6.80;99.90;;;;;;5055980;28;20028;-80
2024/02/06 03:39:22;;;;;;;12.07;4.35;;;6.80;99.90;;;;;;5055222;28;20032;-80
2024/02/06 03:41:47;;;;;;;11.70;4.60;;;6.80;99.90;;;;;;5056520;28;20106;-80
2024/02/06 03:44:14;;;;;;;13.85;5.50;;;6.80;99.90;;;;;;5055527;28;20033;-80
2024/02/06 03:46:40;;;;;;;14.57;5.27;;;6.70;99.90;;;;;;5056944;28;20037;-80
2024/02/06 03:49:07;;;;;;;13.27;4.40;;;6.70;99.90;;;;;;5055708;28;20104;-80
2024/02/06 03:51:34;;;;;;;13.50;4.63;;;6.70;99.90;;;;;;5055192;28;20029;-80
2024/02/06 03:53:59;;;;;;;11.00;4.40;;;6.60;99.90;;;;;;5055958;28;20068;-80
2024/02/06 03:56:25;;;;;;;16.23;5.80;;;6.60;99.90;;;;;;5055300;28;20029;-79
2024/02/06 03:58:51;;;;;;;14.53;4.77;;;6.60;99.90;;;;;;5055604;28;20029;-79
2024/02/06 04:01:16;;;;;;;11.43;4.23;;;6.60;99.90;;;;;;5055079;28;20024;-81
2024/02/06 04:03:43;;;;;;;14.37;4.50;;;6.60;99.90;;;;;;5055329;28;20045;-80
2024/02/06 04:06:12;;;;;;;12.23;4.00;;;6.60;99.90;;;;;;5056455;28;20063;-80
2024/02/06 04:08:38;;;;;;;10.20;4.27;;;6.60;99.90;;;;;;5055562;28;20025;-82
2024/02/06 04:11:04;;;;;;;12.93;4.37;;;6.50;99.90;;;;;;5055219;28;20025;-81
2024/02/06 04:13:30;;;;;;;10.27;4.60;;;6.50;99.90;;;;;;5056151;28;20506;-81
2024/02/06 04:15:56;;;;;;;12.30;4.50;;;6.40;99.90;;;;;;5055140;28;20074;-81
2024/02/06 04:18:21;;;;;;;12.67;5.47;;;6.40;99.90;;;;;;5055799;28;20025;-81
2024/02/06 04:20:47;;;;;;;9.57;4.10;;;6.40;99.90;;;;;;5055351;28;20025;-81
2024/02/06 04:23:12;;;;;;;11.38;4.05;;;6.40;99.90;;;;;;5055622;28;20381;-81
2024/02/06 04:25:38;;;;;;;11.05;4.22;;;6.40;99.90;;;;;;5055798;28;20031;-81
2024/02/06 04:28:04;;;;;;;10.47;4.07;;;6.40;99.90;;;;;;5056007;28;20046;-80
2024/02/06 04:30:30;;;;;;;11.53;4.50;;;6.40;99.90;;;;;;5054474;28;20032;-80
2024/02/06 04:32:55;;;;;;;7.57;3.70;;;6.30;99.90;;;;;;5055924;28;20037;-79
2024/02/06 04:35:21;;;;;;;10.67;4.23;;;6.30;99.90;;;;;;5054198;28;20036;-80
2024/02/06 04:37:47;;;;;;;10.93;4.17;;;6.30;99.90;;;;;;5054849;28;20027;-80
2024/02/06 04:40:12;;;;;;;11.00;4.07;;;6.30;99.90;;;;;;5054121;28;20079;-81
2024/02/06 04:42:39;;;;;;;8.70;4.17;;;6.30;99.90;;;;;;5054236;28;20060;-79
2024/02/06 04:45:05;;;;;;;11.90;4.73;;;6.30;99.90;;;;;;5055582;28;20025;-80
2024/02/06 04:47:32;;;;;;;13.03;4.63;;;6.30;99.90;;;;;;5055181;28;20023;-80
2024/02/06 04:49:58;;;;;;;10.50;3.77;;;6.30;99.90;;;;;;5054395;28;20115;-79
2024/02/06 04:52:24;;;;;;;9.20;4.27;;;6.30;99.90;;;;;;5053941;28;20124;-82
2024/02/06 04:54:50;;;;;;;8.60;3.20;;;6.30;99.90;;;;;;5054510;28;20025;-81
2024/02/06 04:57:15;;;;;;;9.30;3.93;;;6.30;99.90;;;;;;5053816;28;20074;-81
2024/02/06 04:59:41;;;;;;;9.33;3.47;;;6.30;99.90;;;;;;5055075;28;20025;-79
2024/02/06 05:02:09;;;;;;;7.17;3.50;;;6.30;99.90;;;;;;5054756;28;20033;-80
2024/02/06 05:04:35;;;;;;;9.87;4.07;;;6.30;99.90;;;;;;5053348;28;20419;-79
2024/02/06 05:07:01;;;;;;;8.20;3.70;;;6.30;99.90;;;;;;5054602;28;20032;-79
2024/02/06 05:09:27;;;;;;;8.27;3.70;;;6.30;99.90;;;;;;5069852;28;20029;-79
2024/02/06 05:11:52;;;;;;;9.27;4.00;;;6.20;99.90;;;;;;5070305;28;20040;-79
2024/02/06 05:14:19;;;;;;;7.67;3.40;;;6.20;99.90;;;;;;5053637;28;20028;-79
2024/02/06 05:16:45;;;;;;;11.67;4.57;;;6.20;99.90;;;;;;5054904;28;20442;-78
2024/02/06 05:19:14;;;;;;;8.80;4.00;;;6.20;99.90;;;;;;5053581;28;20363;-79
2024/02/06 05:21:40;;;;;;;9.40;4.23;;;6.20;99.90;;;;;;5053871;28;20027;-79
2024/02/06 05:24:07;;;;;;;11.87;3.93;;;6.20;99.90;;;;;;5054518;28;20025;-79
2024/02/06 05:26:32;;;;;;;9.83;3.90;;;6.10;99.90;;;;;;5053205;28;20041;-80
2024/02/06 05:28:58;;;;;;;8.93;4.00;;;6.20;99.90;;;;;;5054493;28;20035;-80
2024/02/06 05:31:23;;;;;;;9.70;3.70;;;6.20;99.90;;;;;;5053212;28;20061;-78
2024/02/06 05:33:49;;;;;;;11.87;3.50;;;6.10;99.90;;;;;;5053659;28;20025;-80
2024/02/06 05:36:15;;;;;;;9.23;3.30;;;6.20;99.90;;;;;;5054330;28;20401;-80
2024/02/06 05:38:40;;;;;;;10.73;3.73;;;6.10;99.90;;;;;;5053119;28;20051;-79
2024/02/06 05:41:13;;;;;;;10.40;3.63;;;6.10;99.90;;;;;;5053010;28;20067;-79
2024/02/06 05:43:39;;;;;;;7.53;4.00;;;6.10;99.90;;;;;;5052978;28;20495;-80
2024/02/06 05:46:05;;;;;;;9.93;3.77;;;6.20;99.90;;;;;;5054239;28;20029;-79
2024/02/06 05:48:31;;;;;;;13.20;3.50;;;6.20;99.90;;;;;;5053068;28;20458;-80
2024/02/06 05:50:56;;;;;;;7.50;3.38;;;6.20;99.90;;;;;;5054178;28;20074;-80
2024/02/06 05:53:22;;;;;;;7.63;3.17;;;6.20;99.90;;;;;;5052660;28;20067;-81
2024/02/06 05:55:48;;;;;;;9.67;3.00;;;6.20;99.90;;;;;;5053962;28;20458;-79
2024/02/06 05:58:14;;;;;;;8.67;2.90;;;6.30;99.90;;;;;;5052641;28;20036;-78
2024/02/06 06:00:40;;;;;;;9.10;3.93;;;6.30;99.90;;;;;;5051905;28;20017;-80
2024/02/06 06:03:05;;;;;;;7.73;3.30;;;6.30;99.90;;;;;;5052951;28;20123;-80
2024/02/06 06:05:31;;;;;;;10.07;3.33;;;6.20;99.90;;;;;;5053600;28;20036;-79
2024/02/06 06:07:56;;;;;;;6.10;3.30;;;6.30;99.90;;;;;;5053957;28;20021;-79
2024/02/06 06:10:22;;;;;;;6.57;3.33;;;6.30;99.90;;;;;;5053372;28;20065;-81
2024/02/06 06:12:48;;;;;;;11.50;3.97;;;6.30;99.90;;;;;;5053910;28;20033;-79
2024/02/06 06:15:15;;;;;;;8.80;3.77;;;6.30;99.90;;;;;;5053628;28;20019;-79
2024/02/06 06:17:40;;;;;;;7.87;3.80;;;6.30;99.90;;;;;;5052207;28;20462;-79
2024/02/06 06:20:06;;;;;;;8.33;3.37;;;6.30;99.90;;;;;;5053024;28;20040;-81
2024/02/06 06:22:32;;;;;;;9.57;3.30;;;6.30;99.90;;;;;;5052555;28;20040;-82
2024/02/06 06:24:58;;;;;;;10.30;3.30;;;6.30;99.90;;;;;;5053042;28;20021;-81
2024/02/06 06:27:23;;;;;;;6.40;3.47;;;6.30;99.90;;;;;;5052869;28;20036;-81
2024/02/06 06:29:49;;;;;;;11.90;3.70;;;6.30;99.90;;;;;;5052464;28;20021;-81
2024/02/06 06:32:15;;;;;;;7.77;3.40;;;6.30;99.90;;;;;;5053281;28;20450;-81
2024/02/06 06:34:41;;;;;;;6.50;3.33;;;6.40;99.90;;;;;;5053119;28;20032;-80
2024/02/06 06:37:07;;;;;;;8.30;3.60;;;6.40;99.90;;;;;;5052320;28;20021;-81
2024/02/06 06:39:33;;;;;;;8.87;3.30;;;6.40;99.90;;;;;;5051946;28;20029;-81
2024/02/06 06:41:59;;;;;;;10.33;3.50;;;6.40;99.90;;;;;;5054580;28;20048;-81
2024/02/06 06:44:25;;;;;;;9.60;3.33;;;6.40;99.90;;;;;;5059327;28;20028;-81
2024/02/06 06:46:51;;;;;;;9.57;3.50;;;6.40;99.90;;;;;;5053628;28;20547;-81
2024/02/06 06:49:16;;;;;;;7.73;3.60;;;6.40;99.90;;;;;;5052521;28;20071;-81
2024/02/06 06:51:46;;;;;;;7.80;3.70;;;6.40;99.90;;;;;;5052882;28;20021;-81
2024/02/06 06:54:11;;;;;;;8.67;3.43;;;6.40;99.90;;;;;;5052143;28;20029;-81
2024/02/06 06:56:37;;;;;;;9.87;3.87;;;6.40;99.90;;;;;;5051834;28;20452;-81
2024/02/06 06:59:03;;;;;;;11.37;3.73;;;6.40;99.90;;;;;;5053243;28;20041;-81
2024/02/06 07:01:29;;;;;;;6.43;3.40;;;6.40;99.90;;;;;;5051875;28;20091;-80
2024/02/06 07:03:54;;;;;;;10.63;3.80;;;6.40;99.90;;;;;;5052461;28;20033;-80
2024/02/06 07:06:20;;;;;;;8.40;3.37;;;6.40;99.90;;;;;;5053235;28;20060;-81
2024/02/06 07:08:46;;;;;;;9.33;3.10;;;6.40;99.90;;;;;;5053390;28;20032;-81
2024/02/06 07:11:12;;;;;;;9.93;3.77;;;6.40;99.90;;;;;;5053512;28;20095;-80
2024/02/06 07:13:37;;;;;;;9.03;3.60;;;6.40;99.90;;;;;;5052037;28;20021;-80
2024/02/06 07:16:03;;;;;;;8.53;3.40;;;6.40;99.90;;;;;;5052043;28;20478;-80
2024/02/06 07:18:28;;;;;;;7.77;3.30;;;6.40;99.90;;;;;;5051750;28;20029;-80
2024/02/06 07:20:54;;;;;;;8.40;3.43;;;6.40;99.90;;;;;;5052114;28;20573;-80
2024/02/06 07:23:20;;;;;;;6.30;2.90;;;6.40;99.90;;;;;;5053313;28;20033;-80
2024/02/06 07:25:45;;;;;;;10.93;3.20;;;6.30;99.90;;;;;;5051944;28;20052;-79
2024/02/06 07:28:11;;;;;;;9.03;3.37;;;6.40;99.90;;;;;;5053196;28;20079;-79
2024/02/06 07:30:37;;;;;;;8.43;3.00;;;6.40;99.90;;;;;;5051523;28;20112;-79
2024/02/06 07:33:02;;;;;;;9.03;2.87;;;6.40;99.90;;;;;;5053131;28;20043;-79
2024/02/06 07:35:28;;;;;;;7.68;3.42;;;6.50;99.90;;;;;;5051366;28;20029;-80
2024/02/06 07:37:53;;;;;;;8.13;2.80;;;6.50;99.90;;;;;;5051891;28;20029;-80
2024/02/06 07:40:19;;;;;;;7.23;2.87;;;6.50;99.90;;;;;;5052966;28;20108;-79
2024/02/06 07:42:49;;;;;;;6.33;2.60;;;6.50;99.90;;;;;;5051072;28;20056;-79
2024/02/06 07:45:15;;;;;;;7.33;2.60;;;6.60;99.90;;;;;;5051961;28;20079;-80
2024/02/06 07:47:41;;;;;;;5.75;2.13;;;6.60;99.90;;;;;;5052626;28;20477;-79
2024/02/06 07:50:07;;;;;;;5.45;2.47;;;6.60;99.90;;;;;;5053702;28;20021;-80
2024/02/06 07:52:33;;;;;;;4.93;2.47;;;6.70;99.90;;;;;;5056074;28;20035;-79
2024/02/06 07:54:59;;;;;;;5.20;2.10;;;6.70;99.90;;;;;;5055511;28;20021;-80
2024/02/06 07:57:24;;;;;;;6.03;2.07;;;6.70;99.90;;;;;;5055829;28;20025;-80
2024/02/06 07:59:50;;;;;;;7.30;2.13;;;6.80;99.90;;;;;;5055414;28;20056;-79
2024/02/06 08:02:16;;;;;;;6.87;2.13;;;6.80;99.90;;;;;;5055084;28;20037;-79
2024/02/06 08:04:43;;;;;;;4.03;1.97;;;6.80;99.90;;;;;;5054784;28;20120;-79
2024/02/06 08:07:08;;;;;;;6.68;2.03;;;6.90;99.90;;;;;;5055256;28;20021;-79
2024/02/06 08:09:34;;;;;;;5.87;1.80;;;6.90;99.90;;;;;;5055510;28;20051;-79
2024/02/06 08:12:00;;;;;;;5.93;1.83;;;7.00;99.90;;;;;;5056315;28;20040;-79
2024/02/06 08:14:26;;;;;;;7.53;2.00;;;7.00;99.90;;;;;;5055816;28;20083;-79
2024/02/06 08:16:51;;;;;;;5.93;1.80;;;7.00;99.90;;;;;;5056250;28;20067;-79
2024/02/06 08:19:17;;;;;;;4.63;2.13;;;7.10;99.90;;;;;;5056210;28;20063;-79
2024/02/06 08:21:43;;;;;;;5.40;1.60;;;7.10;99.90;;;;;;5055777;28;20300;-80
2024/02/06 08:24:09;;;;;;;2.17;1.30;;;7.10;99.90;;;;;;5055064;28;20021;-79
2024/02/06 08:26:35;;;;;;;4.45;1.65;;;7.20;99.90;;;;;;5054345;28;20025;-80
2024/02/06 08:29:00;;;;;;;2.70;1.30;;;7.20;99.90;;;;;;5056198;28;20029;-79
2024/02/06 08:31:26;;;;;;;4.63;1.75;;;7.30;99.90;;;;;;5054289;28;20024;-80
2024/02/06 08:33:52;;;;;;;5.43;1.70;;;7.30;99.90;;;;;;5054953;28;20032;-79
2024/02/06 08:36:17;;;;;;;2.95;1.45;;;7.30;99.90;;;;;;5055819;28;20078;-79
2024/02/06 08:38:43;;;;;;;3.65;1.38;;;7.40;99.90;;;;;;5054366;28;20032;-79
2024/02/06 08:41:09;;;;;;;3.90;1.20;;;7.40;99.90;;;;;;5054311;28;20025;-79
2024/02/06 08:43:35;;;;;;;2.72;1.50;;;7.50;99.90;;;;;;5055030;28;20037;-80
2024/02/06 08:46:00;;;;;;;2.88;1.45;;;7.50;99.90;;;;;;5054500;28;20064;-79
2024/02/06 08:48:28;;;;;;;5.53;1.60;;;7.60;99.90;;;;;;5054432;28;20533;-81
2024/02/06 08:50:57;;;;;;;3.65;1.40;;;7.60;99.90;;;;;;5054554;28;20111;-79
2024/02/06 08:53:23;;;;;;;4.47;1.13;;;7.60;99.90;;;;;;5054313;28;20036;-79
2024/02/06 08:55:48;;;;;;;2.83;1.27;;;7.70;99.90;;;;;;5054774;28;20463;-80
2024/02/06 08:58:14;;;;;;;3.95;1.58;;;7.70;99.90;;;;;;5054055;28;20028;-80
2024/02/06 09:00:40;;;;;;;2.90;1.40;;;7.70;99.90;;;;;;5054780;28;20103;-79
2024/02/06 09:03:06;;;;;;;3.22;1.48;;;7.80;99.90;;;;;;5054043;28;20060;-79
2024/02/06 09:05:32;;;;;;;2.75;1.25;;;7.80;99.90;;;;;;5053540;28;20064;-79
2024/02/06 09:07:57;;;;;;;6.55;1.70;;;7.80;99.90;;;;;;5053974;28;20090;-79
2024/02/06 09:10:24;;;;;;;3.72;1.60;;;7.80;99.90;;;;;;5053986;28;20029;-80
2024/02/06 09:12:51;;;;;;;7.40;1.60;;;7.80;99.90;;;;;;5054046;28;20067;-80
2024/02/06 09:15:17;;;;;;;4.60;1.67;;;7.90;99.90;;;;;;5054934;28;20078;-79
2024/02/06 09:17:43;;;;;;;3.85;1.67;;;7.90;99.90;;;;;;5053188;28;20032;-78
2024/02/06 09:20:12;;;;;;;4.47;1.50;;;7.90;99.90;;;;;;5053959;28;20025;-78
2024/02/06 09:22:39;;;;;;;3.05;1.58;;;7.90;99.90;;;;;;5052993;28;20164;-80
2024/02/06 09:25:05;;;;;;;4.90;1.55;;;7.90;99.90;;;;;;5053508;28;20025;-80
2024/02/06 09:27:31;;;;;;;5.30;1.98;;;7.90;99.90;;;;;;5053421;28;20025;-79
2024/02/06 09:29:58;;;;;;;4.57;2.15;;;7.90;99.90;;;;;;5054626;28;20060;-79
2024/02/06 09:32:24;;;;;;;5.45;1.95;;;7.90;99.90;;;;;;5053666;28;20362;-79
2024/02/06 09:34:51;;;;;;;7.75;2.53;;;7.90;99.90;;;;;;5054122;28;20031;-80
2024/02/06 09:37:16;;;;;;;5.30;1.70;;;7.90;99.90;;;;;;5053595;28;20125;-80
2024/02/06 09:39:42;;;;;;;8.98;2.40;;;7.90;99.90;;;;;;5052875;28;20052;-80
2024/02/06 09:42:08;;;;;;;5.22;2.45;;;7.90;99.90;;;;;;5052881;28;20053;-80
2024/02/06 09:44:34;;;;;;;9.30;2.67;;;7.90;99.90;;;;;;5053851;28;20059;-80
2024/02/06 09:47:00;;;;;;;7.80;2.60;;;7.90;99.90;;;;;;5053175;28;20022;-79
2024/02/06 09:49:26;;;;;;;5.28;2.38;;;7.90;99.90;;;;;;5054434;28;20025;-79
2024/02/06 09:51:52;;;;;;;8.63;2.58;;;7.90;99.90;;;;;;5052832;28;20028;-79
2024/02/06 09:54:22;;;;;;;6.85;2.80;;;7.90;99.90;;;;;;5053341;28;20032;-79
2024/02/06 09:56:49;;;;;;;5.22;2.40;;;7.90;99.90;;;;;;5052656;28;20024;-79
2024/02/06 09:59:16;;;;;;;5.43;2.70;;;7.90;99.90;;;;;;5054038;28;20118;-79
2024/02/06 10:01:43;;;;;;;6.13;2.58;;;7.90;99.90;;;;;;5052267;28;20025;-80
2024/02/06 10:04:11;;;;;;;4.60;2.50;;;7.90;99.90;;;;;;5052920;28;20520;-79
2024/02/06 10:06:36;;;;;;;7.13;3.05;;;7.90;99.90;;;;;;5052263;28;20115;-79
2024/02/06 10:09:04;;;;;;;6.72;2.90;;;7.90;99.90;;;;;;5054137;28;20432;-80
2024/02/06 10:11:33;;;;;;;6.80;2.85;;;7.90;99.90;;;;;;5052816;28;20071;-79
2024/02/06 10:14:00;;;;;;;6.15;2.85;;;7.90;99.90;;;;;;5053581;28;20025;-79
2024/02/06 10:16:26;;;;;;;7.68;2.97;;;7.90;99.90;;;;;;5052684;28;20480;-80
2024/02/06 10:18:53;;;;;;;7.18;2.95;;;7.90;99.90;;;;;;5053358;28;20104;-80
2024/02/06 10:21:19;;;;;;;8.88;2.83;;;7.90;99.90;;;;;;5053092;28;20119;-80
2024/02/06 10:23:46;;;;;;;7.32;2.83;;;7.90;99.90;;;;;;5052146;28;20087;-80
2024/02/06 10:26:17;;;;;;;8.73;3.72;;;7.80;99.90;;;;;;5052608;28;20025;-79
2024/02/06 10:28:43;;;;;;;7.35;3.08;;;7.90;99.90;;;;;;5053399;28;20497;-80
2024/02/06 10:31:12;;;;;;;6.82;2.88;;;7.90;99.90;;;;;;5052935;28;20025;-80
2024/02/06 10:33:38;;;;;;;7.05;3.10;;;7.90;99.90;;;;;;5053390;28;20036;-82
2024/02/06 10:36:04;;;;;;;5.80;3.00;;;7.80;99.90;;;;;;5053816;28;20024;-82
2024/02/06 10:38:30;;;;;;;8.70;2.60;;;7.80;99.90;;;;;;5053064;28;20111;-81
2024/02/06 10:40:57;;;;;;;13.95;3.38;;;7.80;99.90;;;;;;5052322;28;20048;-81
2024/02/06 10:43:29;;;;;;;5.10;2.85;;;7.80;99.90;;;;;;5052124;28;20505;-81
2024/02/06 10:45:59;;;;;;;7.50;2.55;;;7.80;99.90;;;;;;5052357;28;20033;-82
2024/02/06 10:48:25;;;;;;;8.07;3.30;;;7.90;99.90;;;;;;5052721;28;20025;-81
2024/02/06 10:51:01;;;;;;;5.90;2.70;;;7.90;99.90;;;;;;5053127;28;20048;-81
2024/02/06 10:53:27;;;;;;;5.88;2.45;;;7.90;99.90;;;;;;5052669;28;20384;-82
2024/02/06 10:56:08;;;;;;;5.57;2.63;;;7.90;99.90;;;;;;5052411;28;20067;-82
2024/02/06 10:58:40;;;;;;;8.07;2.55;;;8.00;99.90;;;;;;5052738;28;20029;-83
2024/02/06 11:01:09;;;;;;;5.53;2.13;;;8.00;99.90;;;;;;5052619;28;20120;-82
2024/02/06 11:03:44;;;;;;;11.32;2.60;;;8.10;99.90;;;;;;5051982;28;20040;-82
2024/02/06 11:06:26;;;;;;;5.30;2.60;;;8.10;99.90;;;;;;5052536;28;20024;-83
2024/02/06 11:08:54;;;;;;;;;;;8.20;99.90;;;;;;5052751;28;20029;-83
2024/02/06 11:11:19;;;;;;;7.40;2.03;;;8.30;99.90;;;;;;5052135;28;19939;-83
2024/02/06 11:13:48;;;;;;;5.15;2.40;;;8.20;99.90;;;;;;5051984;28;20033;-83
2024/02/06 11:16:18;;;;;;;7.78;2.38;;;8.30;99.90;;;;;;5052433;28;20029;-83
2024/02/06 11:18:59;;;;;;;9.45;1.75;;;8.40;99.90;;;;;;5052098;28;20025;-83
2024/02/06 11:21:26;;;;;;;4.88;2.78;;;8.30;99.90;;;;;;5053840;28;20027;-83
2024/02/06 11:23:54;;;;;;;3.30;2.00;;;8.40;99.90;;;;;;5053138;28;20488;-81
2024/02/06 11:26:20;;;;;;;4.13;1.60;;;8.40;99.90;;;;;;5055998;28;20036;-81
2024/02/06 11:28:47;;;;;;;3.85;1.77;;;8.40;99.90;;;;;;5055517;28;20032;-81
2024/02/06 11:31:13;;;;;;;6.13;1.45;;;8.40;99.90;;;;;;5056168;28;20036;-81
2024/02/06 11:33:38;;;;;;;5.13;1.75;;;8.40;99.90;;;;;;5056489;28;20029;-81
2024/02/06 11:36:09;;;;;;;5.35;1.90;;;8.40;99.90;;;;;;5055904;28;20484;-80
2024/02/06 11:38:34;;;;;;;5.20;1.80;;;8.40;99.90;;;;;;5055896;28;20029;-81
2024/02/06 11:41:13;;;;;;;3.55;1.48;;;8.50;99.90;;;;;;5055398;28;20029;-81
2024/02/06 11:43:39;;;;;;;3.90;1.38;;;8.50;99.90;;;;;;5055969;28;20044;-81
2024/02/06 11:46:04;;;;;;;4.22;1.50;;;8.50;99.90;;;;;;5055996;28;20020;-81
2024/02/06 11:48:30;;;;;;;3.00;1.35;;;8.50;99.90;;;;;;5056782;28;20531;-81
2024/02/06 11:50:56;;;;;;;3.10;1.77;;;8.50;99.90;;;;;;5056203;28;20027;-80
2024/02/06 11:53:26;;;;;;;3.40;1.45;;;8.60;99.90;;;;;;5055824;28;20033;-80
2024/02/06 11:55:52;;;;;;;2.78;1.20;;;8.60;99.90;;;;;;5055028;28;20082;-81
2024/02/06 11:58:18;;;;;;;1.90;1.20;;;8.60;99.90;;;;;;5056481;28;20024;-81
2024/02/06 12:00:44;;;;;;;5.22;2.05;;;8.80;99.90;;;;;;5056000;28;20025;-82
2024/02/06 12:03:12;;;;;;;3.33;1.85;;;8.80;99.90;;;;;;5056370;28;20102;-81
2024/02/06 12:05:39;;;;;;;3.17;1.60;;;8.80;99.90;;;;;;5055076;28;20036;-83
2024/02/06 12:08:05;;;;;;;2.75;1.52;;;8.90;99.90;;;;;;5055357;28;20024;-81
2024/02/06 12:10:33;;;;;;;3.58;1.60;;;8.90;99.90;;;;;;5055565;28;20032;-81
2024/02/06 12:13:03;;;;;;;2.90;1.27;;;9.00;99.90;;;;;;5054576;28;20505;-81
2024/02/06 12:15:37;;;;;;;3.60;1.10;;;9.00;99.90;;;;;;5056506;28;20049;-82
2024/02/06 12:18:03;;;;;;;1.90;1.10;;;9.00;99.90;;;;;;5055011;28;20539;-81
2024/02/06 12:20:30;;;;;;;1.42;1.10;;;9.00;99.90;;;;;;5055407;28;20071;-82
2024/02/06 12:23:05;;;;;;;2.75;1.30;;;9.00;99.90;;;;;;5055815;28;20037;-81
2024/02/06 12:25:31;;;;;;;2.72;1.10;;;9.00;99.90;;;;;;5055385;28;20025;-82
2024/02/06 12:27:58;;;;;;;2.85;0.98;;;9.10;99.90;;;;;;5054505;28;20036;-82
2024/02/06 12:30:25;;;;;;;2.40;1.08;;;9.30;99.90;;;;;;5054884;28;20033;-81
2024/02/06 12:32:50;;;;;;;3.33;1.30;;;9.30;99.90;;;;;;5054620;28;20032;-81
2024/02/06 12:35:18;;;;;;;2.63;1.23;;;9.40;99.90;;;;;;5054736;28;20032;-81
2024/02/06 12:37:43;;;;;;;4.25;1.13;;;9.50;99.90;;;;;;5054575;28;20032;-82
2024/02/06 12:40:10;;;;;;;2.08;0.98;;;9.50;99.90;;;;;;5055128;28;20033;-82
2024/02/06 12:42:36;;;;;;;2.72;1.05;;;9.50;99.90;;;;;;5054388;28;20179;-81
2024/02/06 12:45:04;;;;;;;1.63;0.80;;;9.50;99.90;;;;;;5054337;28;20055;-82
2024/02/06 12:47:30;;;;;;;2.05;0.70;;;9.60;99.90;;;;;;5054836;28;20154;-82